sensor_id;sensor_type;location;lat;lon;timestamp;temperature;humidity
80238;DHT22;69544;42.138;24.742;2023-06-14T00:00:21;26.30;45.00
80238;DHT22;69544;42.138;24.742;2023-06-14T00:02:47;26.30;44.90
80238;DHT22;69544;42.138;24.742;2023-06-14T00:05:13;26.30;44.90
80238;DHT22;69544;42.138;24.742;2023-06-14T00:07:41;26.30;44.90
80238;DHT22;69544;42.138;24.742;2023-06-14T00:10:14;26.30;44.90
80238;DHT22;69544;42.138;24.742;2023-06-14T00:12:40;26.30;44.90
80238;DHT22;69544;42.138;24.742;2023-06-14T00:15:07;26.30;44.90
80238;DHT22;69544;42.138;24.742;2023-06-14T00:17:35;26.30;45.00
80238;DHT22;69544;42.138;24.742;2023-06-14T00:20:03;26.30;45.00
80238;DHT22;69544;42.138;24.742;2023-06-14T00:22:30;26.30;45.00
80238;DHT22;69544;42.138;24.742;2023-06-14T00:24:57;26.30;45.00
80238;DHT22;69544;42.138;24.742;2023-06-14T00:27:22;26.30;45.00
80238;DHT22;69544;42.138;24.742;2023-06-14T00:29:48;26.30;45.00
80238;DHT22;69544;42.138;24.742;2023-06-14T00:32:14;26.20;44.90
80238;DHT22;69544;42.138;24.742;2023-06-14T00:34:40;26.30;45.00
80238;DHT22;69544;42.138;24.742;2023-06-14T00:37:05;26.30;45.00
80238;DHT22;69544;42.138;24.742;2023-06-14T00:39:31;26.30;45.00
80238;DHT22;69544;42.138;24.742;2023-06-14T00:41:57;26.20;44.90
80238;DHT22;69544;42.138;24.742;2023-06-14T00:44:24;26.30;45.00
80238;DHT22;69544;42.138;24.742;2023-06-14T00:46:50;26.30;45.00
80238;DHT22;69544;42.138;24.742;2023-06-14T00:49:18;26.30;45.00
80238;DHT22;69544;42.138;24.742;2023-06-14T00:51:45;26.30;45.10
80238;DHT22;69544;42.138;24.742;2023-06-14T00:54:10;26.30;45.00
80238;DHT22;69544;42.138;24.742;2023-06-14T00:56:36;26.20;44.90
80238;DHT22;69544;42.138;24.742;2023-06-14T00:59:02;26.20;44.80
80238;DHT22;69544;42.138;24.742;2023-06-14T01:01:29;26.20;44.90
80238;DHT22;69544;42.138;24.742;2023-06-14T01:03:58;26.20;44.90
80238;DHT22;69544;42.138;24.742;2023-06-14T01:06:33;26.20;44.90
80238;DHT22;69544;42.138;24.742;2023-06-14T01:11:58;26.20;44.90
80238;DHT22;69544;42.138;24.742;2023-06-14T01:14:25;26.20;44.90
80238;DHT22;69544;42.138;24.742;2023-06-14T01:16:53;26.20;44.90
80238;DHT22;69544;42.138;24.742;2023-06-14T01:19:20;26.20;44.90
80238;DHT22;69544;42.138;24.742;2023-06-14T01:21:48;26.20;44.90
80238;DHT22;69544;42.138;24.742;2023-06-14T01:24:16;26.20;44.90
80238;DHT22;69544;42.138;24.742;2023-06-14T01:26:45;26.20;44.90
80238;DHT22;69544;42.138;24.742;2023-06-14T01:29:17;26.20;44.90
80238;DHT22;69544;42.138;24.742;2023-06-14T01:31:43;26.20;44.90
80238;DHT22;69544;42.138;24.742;2023-06-14T01:34:11;26.20;45.00
80238;DHT22;69544;42.138;24.742;2023-06-14T01:36:40;26.20;44.90
80238;DHT22;69544;42.138;24.742;2023-06-14T01:39:06;26.20;44.90
80238;DHT22;69544;42.138;24.742;2023-06-14T01:41:33;26.20;45.00
80238;DHT22;69544;42.138;24.742;2023-06-14T01:44:00;26.20;44.90
80238;DHT22;69544;42.138;24.742;2023-06-14T01:46:26;26.20;45.00
80238;DHT22;69544;42.138;24.742;2023-06-14T01:48:52;26.20;44.90
80238;DHT22;69544;42.138;24.742;2023-06-14T01:51:17;26.20;44.90
80238;DHT22;69544;42.138;24.742;2023-06-14T01:53:43;26.20;44.90
80238;DHT22;69544;42.138;24.742;2023-06-14T01:56:09;26.20;44.90
80238;DHT22;69544;42.138;24.742;2023-06-14T01:58:34;26.20;44.90
80238;DHT22;69544;42.138;24.742;2023-06-14T02:01:01;26.20;45.00
80238;DHT22;69544;42.138;24.742;2023-06-14T02:03:27;26.20;44.90
80238;DHT22;69544;42.138;24.742;2023-06-14T02:05:53;26.20;45.00
80238;DHT22;69544;42.138;24.742;2023-06-14T02:08:20;26.20;44.90
80238;DHT22;69544;42.138;24.742;2023-06-14T02:10:45;26.20;45.00
80238;DHT22;69544;42.138;24.742;2023-06-14T02:13:11;26.20;44.90
80238;DHT22;69544;42.138;24.742;2023-06-14T02:15:37;26.20;45.00
80238;DHT22;69544;42.138;24.742;2023-06-14T02:18:03;26.20;45.00
80238;DHT22;69544;42.138;24.742;2023-06-14T02:20:29;26.20;45.00
80238;DHT22;69544;42.138;24.742;2023-06-14T02:22:55;26.20;44.90
80238;DHT22;69544;42.138;24.742;2023-06-14T02:25:21;26.20;45.00
80238;DHT22;69544;42.138;24.742;2023-06-14T02:27:47;26.20;45.00
80238;DHT22;69544;42.138;24.742;2023-06-14T02:30:13;26.20;45.00
80238;DHT22;69544;42.138;24.742;2023-06-14T02:32:39;26.20;45.00
80238;DHT22;69544;42.138;24.742;2023-06-14T02:35:06;26.20;46.10
80238;DHT22;69544;42.138;24.742;2023-06-14T02:37:32;26.20;45.10
80238;DHT22;69544;42.138;24.742;2023-06-14T02:40:00;26.20;45.00
80238;DHT22;69544;42.138;24.742;2023-06-14T02:42:26;26.20;45.10
80238;DHT22;69544;42.138;24.742;2023-06-14T02:44:52;26.10;45.00
80238;DHT22;69544;42.138;24.742;2023-06-14T02:47:18;26.10;45.00
80238;DHT22;69544;42.138;24.742;2023-06-14T02:49:44;26.20;45.10
80238;DHT22;69544;42.138;24.742;2023-06-14T02:52:12;26.20;45.10
80238;DHT22;69544;42.138;24.742;2023-06-14T02:54:37;26.10;45.00
80238;DHT22;69544;42.138;24.742;2023-06-14T02:57:03;26.10;45.00
80238;DHT22;69544;42.138;24.742;2023-06-14T02:59:29;26.10;45.00
80238;DHT22;69544;42.138;24.742;2023-06-14T03:01:55;26.10;45.00
80238;DHT22;69544;42.138;24.742;2023-06-14T03:04:20;26.10;45.00
80238;DHT22;69544;42.138;24.742;2023-06-14T03:06:46;26.10;45.00
80238;DHT22;69544;42.138;24.742;2023-06-14T03:09:16;26.10;45.00
80238;DHT22;69544;42.138;24.742;2023-06-14T03:11:41;26.10;45.00
80238;DHT22;69544;42.138;24.742;2023-06-14T03:14:07;26.10;45.00
80238;DHT22;69544;42.138;24.742;2023-06-14T03:16:33;26.10;45.40
80238;DHT22;69544;42.138;24.742;2023-06-14T03:18:59;26.10;45.10
80238;DHT22;69544;42.138;24.742;2023-06-14T03:21:25;26.10;45.10
80238;DHT22;69544;42.138;24.742;2023-06-14T03:23:54;26.10;45.10
80238;DHT22;69544;42.138;24.742;2023-06-14T03:26:20;26.10;45.00
80238;DHT22;69544;42.138;24.742;2023-06-14T03:28:46;26.10;45.10
80238;DHT22;69544;42.138;24.742;2023-06-14T03:31:13;26.10;45.10
80238;DHT22;69544;42.138;24.742;2023-06-14T03:33:39;26.10;45.10
80238;DHT22;69544;42.138;24.742;2023-06-14T03:36:05;26.10;45.10
80238;DHT22;69544;42.138;24.742;2023-06-14T03:38:32;26.10;45.10
80238;DHT22;69544;42.138;24.742;2023-06-14T03:40:58;26.10;45.60
80238;DHT22;69544;42.138;24.742;2023-06-14T03:43:23;26.10;45.10
80238;DHT22;69544;42.138;24.742;2023-06-14T03:45:49;26.10;45.10
80238;DHT22;69544;42.138;24.742;2023-06-14T03:48:15;26.10;45.10
80238;DHT22;69544;42.138;24.742;2023-06-14T03:50:40;26.10;45.20
80238;DHT22;69544;42.138;24.742;2023-06-14T03:53:10;26.10;45.10
80238;DHT22;69544;42.138;24.742;2023-06-14T03:55:35;26.10;45.10
80238;DHT22;69544;42.138;24.742;2023-06-14T03:58:03;26.10;45.10
80238;DHT22;69544;42.138;24.742;2023-06-14T04:00:29;26.10;45.10
80238;DHT22;69544;42.138;24.742;2023-06-14T04:02:54;26.10;45.00
80238;DHT22;69544;42.138;24.742;2023-06-14T04:05:20;26.10;45.00
80238;DHT22;69544;42.138;24.742;2023-06-14T04:07:46;26.10;45.00
80238;DHT22;69544;42.138;24.742;2023-06-14T04:10:14;26.10;45.00
80238;DHT22;69544;42.138;24.742;2023-06-14T04:12:41;26.10;45.00
80238;DHT22;69544;42.138;24.742;2023-06-14T04:15:08;26.10;45.00
80238;DHT22;69544;42.138;24.742;2023-06-14T04:17:37;26.10;45.00
80238;DHT22;69544;42.138;24.742;2023-06-14T04:20:03;26.10;45.00
80238;DHT22;69544;42.138;24.742;2023-06-14T04:22:31;26.00;46.20
80238;DHT22;69544;42.138;24.742;2023-06-14T04:24:57;26.00;46.80
80238;DHT22;69544;42.138;24.742;2023-06-14T04:27:25;25.90;47.10
80238;DHT22;69544;42.138;24.742;2023-06-14T04:29:52;25.90;47.30
80238;DHT22;69544;42.138;24.742;2023-06-14T04:32:25;25.90;47.60
80238;DHT22;69544;42.138;24.742;2023-06-14T04:34:55;25.80;47.70
80238;DHT22;69544;42.138;24.742;2023-06-14T04:37:21;25.80;49.10
80238;DHT22;69544;42.138;24.742;2023-06-14T04:39:48;25.70;48.00
80238;DHT22;69544;42.138;24.742;2023-06-14T04:42:14;25.70;48.20
80238;DHT22;69544;42.138;24.742;2023-06-14T04:44:42;25.70;48.60
80238;DHT22;69544;42.138;24.742;2023-06-14T04:47:13;25.60;48.40
80238;DHT22;69544;42.138;24.742;2023-06-14T04:49:40;25.60;48.80
80238;DHT22;69544;42.138;24.742;2023-06-14T04:52:06;25.60;48.80
80238;DHT22;69544;42.138;24.742;2023-06-14T04:54:32;25.60;49.00
80238;DHT22;69544;42.138;24.742;2023-06-14T04:56:59;25.60;49.00
80238;DHT22;69544;42.138;24.742;2023-06-14T04:59:25;25.50;49.10
80238;DHT22;69544;42.138;24.742;2023-06-14T05:01:51;25.50;49.20
80238;DHT22;69544;42.138;24.742;2023-06-14T05:04:18;25.50;49.60
80238;DHT22;69544;42.138;24.742;2023-06-14T05:06:44;25.50;49.30
80238;DHT22;69544;42.138;24.742;2023-06-14T05:09:14;25.40;49.40
80238;DHT22;69544;42.138;24.742;2023-06-14T05:11:41;25.40;49.70
80238;DHT22;69544;42.138;24.742;2023-06-14T05:14:11;25.40;49.70
80238;DHT22;69544;42.138;24.742;2023-06-14T05:16:37;25.40;49.80
80238;DHT22;69544;42.138;24.742;2023-06-14T05:19:03;25.40;49.90
80238;DHT22;69544;42.138;24.742;2023-06-14T05:21:30;25.40;50.10
80238;DHT22;69544;42.138;24.742;2023-06-14T05:23:56;25.40;49.80
80238;DHT22;69544;42.138;24.742;2023-06-14T05:26:21;25.40;50.10
80238;DHT22;69544;42.138;24.742;2023-06-14T05:28:50;25.40;50.10
80238;DHT22;69544;42.138;24.742;2023-06-14T05:31:18;25.40;49.90
80238;DHT22;69544;42.138;24.742;2023-06-14T05:33:43;25.40;50.40
80238;DHT22;69544;42.138;24.742;2023-06-14T05:36:09;25.30;50.40
80238;DHT22;69544;42.138;24.742;2023-06-14T05:38:35;25.30;50.30
80238;DHT22;69544;42.138;24.742;2023-06-14T05:41:01;25.30;50.40
80238;DHT22;69544;42.138;24.742;2023-06-14T05:43:26;25.30;50.40
80238;DHT22;69544;42.138;24.742;2023-06-14T05:45:52;25.30;50.30
80238;DHT22;69544;42.138;24.742;2023-06-14T05:48:18;25.30;50.40
80238;DHT22;69544;42.138;24.742;2023-06-14T05:50:43;25.30;50.60
80238;DHT22;69544;42.138;24.742;2023-06-14T05:53:09;25.30;50.60
80238;DHT22;69544;42.138;24.742;2023-06-14T05:55:35;25.20;50.60
80238;DHT22;69544;42.138;24.742;2023-06-14T05:58:01;25.20;50.60
80238;DHT22;69544;42.138;24.742;2023-06-14T06:00:27;25.20;50.60
80238;DHT22;69544;42.138;24.742;2023-06-14T06:02:53;25.30;51.00
80238;DHT22;69544;42.138;24.742;2023-06-14T06:05:18;25.20;50.80
80238;DHT22;69544;42.138;24.742;2023-06-14T06:07:45;25.20;50.90
80238;DHT22;69544;42.138;24.742;2023-06-14T06:10:11;25.20;50.90
80238;DHT22;69544;42.138;24.742;2023-06-14T06:12:37;25.20;50.90
80238;DHT22;69544;42.138;24.742;2023-06-14T06:15:03;25.20;50.90
80238;DHT22;69544;42.138;24.742;2023-06-14T06:17:29;25.20;52.20
80238;DHT22;69544;42.138;24.742;2023-06-14T06:19:55;25.20;51.00
80238;DHT22;69544;42.138;24.742;2023-06-14T06:22:21;25.20;51.10
80238;DHT22;69544;42.138;24.742;2023-06-14T06:24:47;25.20;51.20
80238;DHT22;69544;42.138;24.742;2023-06-14T06:27:13;25.20;51.30
80238;DHT22;69544;42.138;24.742;2023-06-14T06:29:38;25.20;51.40
80238;DHT22;69544;42.138;24.742;2023-06-14T06:32:05;25.20;51.30
80238;DHT22;69544;42.138;24.742;2023-06-14T06:34:30;25.20;51.40
80238;DHT22;69544;42.138;24.742;2023-06-14T06:36:56;25.20;51.40
80238;DHT22;69544;42.138;24.742;2023-06-14T06:39:22;25.20;51.30
80238;DHT22;69544;42.138;24.742;2023-06-14T06:41:47;25.20;51.40
80238;DHT22;69544;42.138;24.742;2023-06-14T06:44:13;25.20;51.40
80238;DHT22;69544;42.138;24.742;2023-06-14T06:46:39;25.20;51.40
80238;DHT22;69544;42.138;24.742;2023-06-14T06:49:09;25.20;51.40
80238;DHT22;69544;42.138;24.742;2023-06-14T06:51:40;25.20;51.50
80238;DHT22;69544;42.138;24.742;2023-06-14T06:54:07;25.20;51.60
80238;DHT22;69544;42.138;24.742;2023-06-14T06:56:34;25.20;51.50
80238;DHT22;69544;42.138;24.742;2023-06-14T06:59:00;25.30;51.20
80238;DHT22;69544;42.138;24.742;2023-06-14T07:01:26;25.30;51.00
80238;DHT22;69544;42.138;24.742;2023-06-14T07:03:54;25.40;50.80
80238;DHT22;69544;42.138;24.742;2023-06-14T07:06:20;25.40;50.60
80238;DHT22;69544;42.138;24.742;2023-06-14T07:08:46;25.50;50.40
80238;DHT22;69544;42.138;24.742;2023-06-14T07:11:14;25.50;50.20
80238;DHT22;69544;42.138;24.742;2023-06-14T07:13:39;25.50;50.00
80238;DHT22;69544;42.138;24.742;2023-06-14T07:16:05;25.60;49.90
80238;DHT22;69544;42.138;24.742;2023-06-14T07:18:31;25.60;49.80
80238;DHT22;69544;42.138;24.742;2023-06-14T07:20:57;25.60;49.60
80238;DHT22;69544;42.138;24.742;2023-06-14T07:23:23;25.70;49.60
80238;DHT22;69544;42.138;24.742;2023-06-14T07:25:49;25.70;49.40
80238;DHT22;69544;42.138;24.742;2023-06-14T07:28:16;25.70;49.30
80238;DHT22;69544;42.138;24.742;2023-06-14T07:30:41;25.70;49.20
80238;DHT22;69544;42.138;24.742;2023-06-14T07:33:07;25.80;49.20
80238;DHT22;69544;42.138;24.742;2023-06-14T07:35:33;25.80;49.00
80238;DHT22;69544;42.138;24.742;2023-06-14T07:37:59;25.90;49.00
80238;DHT22;69544;42.138;24.742;2023-06-14T07:40:25;25.90;48.90
80238;DHT22;69544;42.138;24.742;2023-06-14T07:42:51;25.90;48.70
80238;DHT22;69544;42.138;24.742;2023-06-14T07:45:16;25.90;48.60
80238;DHT22;69544;42.138;24.742;2023-06-14T07:47:42;25.90;48.50
80238;DHT22;69544;42.138;24.742;2023-06-14T07:50:08;26.00;48.40
80238;DHT22;69544;42.138;24.742;2023-06-14T07:52:34;26.00;48.30
80238;DHT22;69544;42.138;24.742;2023-06-14T07:55:00;26.00;48.20
80238;DHT22;69544;42.138;24.742;2023-06-14T07:57:25;26.00;48.20
80238;DHT22;69544;42.138;24.742;2023-06-14T07:59:52;26.00;48.20
80238;DHT22;69544;42.138;24.742;2023-06-14T08:02:18;26.00;48.00
80238;DHT22;69544;42.138;24.742;2023-06-14T08:04:43;26.10;48.00
80238;DHT22;69544;42.138;24.742;2023-06-14T08:07:09;26.10;48.10
80238;DHT22;69544;42.138;24.742;2023-06-14T08:09:35;26.10;47.90
80238;DHT22;69544;42.138;24.742;2023-06-14T08:12:04;26.10;47.80
80238;DHT22;69544;42.138;24.742;2023-06-14T08:14:33;26.10;47.80
80238;DHT22;69544;42.138;24.742;2023-06-14T08:16:59;26.10;47.80
80238;DHT22;69544;42.138;24.742;2023-06-14T08:19:24;26.10;47.70
80238;DHT22;69544;42.138;24.742;2023-06-14T08:21:50;26.10;47.60
80238;DHT22;69544;42.138;24.742;2023-06-14T08:24:16;26.20;47.60
80238;DHT22;69544;42.138;24.742;2023-06-14T08:26:42;26.20;47.50
80238;DHT22;69544;42.138;24.742;2023-06-14T08:29:08;26.20;47.50
80238;DHT22;69544;42.138;24.742;2023-06-14T08:31:34;26.20;47.40
80238;DHT22;69544;42.138;24.742;2023-06-14T08:34:00;26.20;47.40
80238;DHT22;69544;42.138;24.742;2023-06-14T08:36:25;26.30;47.50
80238;DHT22;69544;42.138;24.742;2023-06-14T08:38:51;26.20;47.30
80238;DHT22;69544;42.138;24.742;2023-06-14T08:41:21;26.20;47.20
80238;DHT22;69544;42.138;24.742;2023-06-14T08:43:51;26.20;47.20
80238;DHT22;69544;42.138;24.742;2023-06-14T08:46:18;26.30;47.30
80238;DHT22;69544;42.138;24.742;2023-06-14T08:48:51;26.30;47.20
80238;DHT22;69544;42.138;24.742;2023-06-14T08:51:20;26.30;47.10
80238;DHT22;69544;42.138;24.742;2023-06-14T08:53:53;26.30;47.10
80238;DHT22;69544;42.138;24.742;2023-06-14T08:56:19;26.30;47.10
80238;DHT22;69544;42.138;24.742;2023-06-14T08:58:47;26.30;46.90
80238;DHT22;69544;42.138;24.742;2023-06-14T09:01:13;26.40;47.00
80238;DHT22;69544;42.138;24.742;2023-06-14T09:03:43;26.30;47.90
80238;DHT22;69544;42.138;24.742;2023-06-14T09:06:10;26.40;46.90
80238;DHT22;69544;42.138;24.742;2023-06-14T09:08:46;26.40;47.80
80238;DHT22;69544;42.138;24.742;2023-06-14T09:11:13;26.30;46.70
80238;DHT22;69544;42.138;24.742;2023-06-14T09:13:41;26.30;46.60
80238;DHT22;69544;42.138;24.742;2023-06-14T09:16:08;26.40;46.70
80238;DHT22;69544;42.138;24.742;2023-06-14T09:18:42;26.40;46.70
80238;DHT22;69544;42.138;24.742;2023-06-14T09:21:13;26.40;46.70
80238;DHT22;69544;42.138;24.742;2023-06-14T09:23:44;26.40;46.60
80238;DHT22;69544;42.138;24.742;2023-06-14T09:26:13;26.30;46.80
80238;DHT22;69544;42.138;24.742;2023-06-14T09:28:43;26.40;46.90
80238;DHT22;69544;42.138;24.742;2023-06-14T09:31:19;26.40;46.90
80238;DHT22;69544;42.138;24.742;2023-06-14T09:33:47;26.40;47.00
80238;DHT22;69544;42.138;24.742;2023-06-14T09:36:18;26.40;47.00
80238;DHT22;69544;42.138;24.742;2023-06-14T09:39:04;26.30;46.90
80238;DHT22;69544;42.138;24.742;2023-06-14T09:41:38;26.30;46.90
80238;DHT22;69544;42.138;24.742;2023-06-14T09:44:09;26.40;47.00
80238;DHT22;69544;42.138;24.742;2023-06-14T09:46:36;26.30;46.90
80238;DHT22;69544;42.138;24.742;2023-06-14T09:49:03;26.30;46.90
80238;DHT22;69544;42.138;24.742;2023-06-14T09:51:30;26.30;46.90
80238;DHT22;69544;42.138;24.742;2023-06-14T09:54:00;26.30;46.90
80238;DHT22;69544;42.138;24.742;2023-06-14T09:56:34;26.40;46.80
80238;DHT22;69544;42.138;24.742;2023-06-14T09:59:04;26.30;46.80
80238;DHT22;69544;42.138;24.742;2023-06-14T10:01:31;26.40;47.90
80238;DHT22;69544;42.138;24.742;2023-06-14T10:04:07;26.30;46.70
80238;DHT22;69544;42.138;24.742;2023-06-14T10:06:36;26.30;46.70
80238;DHT22;69544;42.138;24.742;2023-06-14T10:09:04;26.40;46.80
80238;DHT22;69544;42.138;24.742;2023-06-14T10:11:31;26.40;46.80
80238;DHT22;69544;42.138;24.742;2023-06-14T10:13:58;26.40;46.70
80238;DHT22;69544;42.138;24.742;2023-06-14T10:16:39;26.40;46.70
80238;DHT22;69544;42.138;24.742;2023-06-14T10:19:23;26.40;46.60
80238;DHT22;69544;42.138;24.742;2023-06-14T10:22:00;26.40;46.50
80238;DHT22;69544;42.138;24.742;2023-06-14T10:24:30;26.50;46.50
80238;DHT22;69544;42.138;24.742;2023-06-14T10:26:58;26.50;46.30
80238;DHT22;69544;42.138;24.742;2023-06-14T10:29:29;26.50;46.30
80238;DHT22;69544;42.138;24.742;2023-06-14T10:31:58;26.50;46.20
80238;DHT22;69544;42.138;24.742;2023-06-14T10:34:27;26.50;46.10
80238;DHT22;69544;42.138;24.742;2023-06-14T10:37:08;26.60;46.10
80238;DHT22;69544;42.138;24.742;2023-06-14T10:39:43;26.60;46.00
80238;DHT22;69544;42.138;24.742;2023-06-14T10:42:12;26.60;45.90
80238;DHT22;69544;42.138;24.742;2023-06-14T10:44:51;26.60;45.90
80238;DHT22;69544;42.138;24.742;2023-06-14T10:47:22;26.60;45.80
80238;DHT22;69544;42.138;24.742;2023-06-14T10:49:51;26.70;45.90
80238;DHT22;69544;42.138;24.742;2023-06-14T10:52:21;26.70;45.80
80238;DHT22;69544;42.138;24.742;2023-06-14T10:57:27;26.70;45.70
80238;DHT22;69544;42.138;24.742;2023-06-14T10:59:53;26.70;45.60
80238;DHT22;69544;42.138;24.742;2023-06-14T11:02:34;26.70;45.60
80238;DHT22;69544;42.138;24.742;2023-06-14T11:05:08;26.70;45.50
80238;DHT22;69544;42.138;24.742;2023-06-14T11:12:32;26.80;45.40
80238;DHT22;69544;42.138;24.742;2023-06-14T11:14:58;26.80;45.40
80238;DHT22;69544;42.138;24.742;2023-06-14T11:17:25;26.80;45.40
80238;DHT22;69544;42.138;24.742;2023-06-14T11:20:10;26.70;45.30
80238;DHT22;69544;42.138;24.742;2023-06-14T11:22:45;26.80;45.40
80238;DHT22;69544;42.138;24.742;2023-06-14T11:25:13;26.80;45.30
80238;DHT22;69544;42.138;24.742;2023-06-14T11:27:42;26.80;45.30
80238;DHT22;69544;42.138;24.742;2023-06-14T11:30:08;26.80;45.30
80238;DHT22;69544;42.138;24.742;2023-06-14T11:32:38;26.80;45.30
80238;DHT22;69544;42.138;24.742;2023-06-14T11:35:05;26.80;45.20
80238;DHT22;69544;42.138;24.742;2023-06-14T11:37:31;26.80;45.20
80238;DHT22;69544;42.138;24.742;2023-06-14T11:40:00;26.90;45.20
80238;DHT22;69544;42.138;24.742;2023-06-14T11:42:27;26.90;45.10
80238;DHT22;69544;42.138;24.742;2023-06-14T11:44:54;26.90;45.10
80238;DHT22;69544;42.138;24.742;2023-06-14T11:47:20;26.90;45.00
80238;DHT22;69544;42.138;24.742;2023-06-14T11:49:46;27.00;45.00
80238;DHT22;69544;42.138;24.742;2023-06-14T11:52:13;27.00;44.80
80238;DHT22;69544;42.138;24.742;2023-06-14T11:54:39;27.00;44.70
80238;DHT22;69544;42.138;24.742;2023-06-14T11:57:07;27.00;44.60
80238;DHT22;69544;42.138;24.742;2023-06-14T11:59:40;27.10;44.70
80238;DHT22;69544;42.138;24.742;2023-06-14T12:02:06;27.20;44.50
80238;DHT22;69544;42.138;24.742;2023-06-14T12:04:32;27.20;44.40
80238;DHT22;69544;42.138;24.742;2023-06-14T12:07:11;27.20;44.30
80238;DHT22;69544;42.138;24.742;2023-06-14T12:12:26;27.30;44.20
80238;DHT22;69544;42.138;24.742;2023-06-14T12:14:54;27.30;44.30
80238;DHT22;69544;42.138;24.742;2023-06-14T12:17:20;27.30;44.10
80238;DHT22;69544;42.138;24.742;2023-06-14T12:19:46;27.30;43.90
80238;DHT22;69544;42.138;24.742;2023-06-14T12:22:13;27.30;43.90
80238;DHT22;69544;42.138;24.742;2023-06-14T12:24:39;27.40;43.90
80238;DHT22;69544;42.138;24.742;2023-06-14T12:27:08;27.40;44.10
80238;DHT22;69544;42.138;24.742;2023-06-14T12:29:33;27.40;43.90
80238;DHT22;69544;42.138;24.742;2023-06-14T12:31:59;27.40;44.00
80238;DHT22;69544;42.138;24.742;2023-06-14T12:34:27;27.40;43.90
80238;DHT22;69544;42.138;24.742;2023-06-14T12:36:53;27.50;44.00
80238;DHT22;69544;42.138;24.742;2023-06-14T12:39:20;27.50;43.90
80238;DHT22;69544;42.138;24.742;2023-06-14T12:41:47;27.50;43.80
80238;DHT22;69544;42.138;24.742;2023-06-14T12:44:13;27.50;43.80
80238;DHT22;69544;42.138;24.742;2023-06-14T12:46:39;27.60;43.70
80238;DHT22;69544;42.138;24.742;2023-06-14T12:49:07;27.60;43.60
80238;DHT22;69544;42.138;24.742;2023-06-14T12:51:33;27.60;43.60
80238;DHT22;69544;42.138;24.742;2023-06-14T12:53:59;27.60;43.40
80238;DHT22;69544;42.138;24.742;2023-06-14T12:56:24;27.70;43.90
80238;DHT22;69544;42.138;24.742;2023-06-14T12:58:51;27.70;43.70
80238;DHT22;69544;42.138;24.742;2023-06-14T13:01:17;27.70;43.70
80238;DHT22;69544;42.138;24.742;2023-06-14T13:03:47;27.70;43.70
80238;DHT22;69544;42.138;24.742;2023-06-14T13:06:12;27.70;44.10
80238;DHT22;69544;42.138;24.742;2023-06-14T13:08:38;27.70;44.10
80238;DHT22;69544;42.138;24.742;2023-06-14T13:11:04;27.70;44.10
80238;DHT22;69544;42.138;24.742;2023-06-14T13:13:30;27.60;44.10
80238;DHT22;69544;42.138;24.742;2023-06-14T13:15:56;27.60;44.40
80238;DHT22;69544;42.138;24.742;2023-06-14T13:18:21;27.60;44.60
80238;DHT22;69544;42.138;24.742;2023-06-14T13:20:47;27.60;44.70
80238;DHT22;69544;42.138;24.742;2023-06-14T13:23:13;27.60;44.90
80238;DHT22;69544;42.138;24.742;2023-06-14T13:25:40;27.60;45.10
80238;DHT22;69544;42.138;24.742;2023-06-14T13:28:06;27.60;45.20
80238;DHT22;69544;42.138;24.742;2023-06-14T13:30:32;27.60;45.00
80238;DHT22;69544;42.138;24.742;2023-06-14T13:32:59;27.60;45.20
80238;DHT22;69544;42.138;24.742;2023-06-14T13:35:25;27.60;45.30
80238;DHT22;69544;42.138;24.742;2023-06-14T13:37:52;27.60;45.30
80238;DHT22;69544;42.138;24.742;2023-06-14T13:40:18;27.60;45.30
80238;DHT22;69544;42.138;24.742;2023-06-14T13:42:43;27.60;45.30
80238;DHT22;69544;42.138;24.742;2023-06-14T13:45:11;27.60;45.40
80238;DHT22;69544;42.138;24.742;2023-06-14T13:47:37;27.60;45.40
80238;DHT22;69544;42.138;24.742;2023-06-14T13:50:04;27.60;45.50
80238;DHT22;69544;42.138;24.742;2023-06-14T13:52:30;27.60;45.70
80238;DHT22;69544;42.138;24.742;2023-06-14T13:54:56;27.60;45.70
80238;DHT22;69544;42.138;24.742;2023-06-14T13:57:22;27.60;45.60
80238;DHT22;69544;42.138;24.742;2023-06-14T13:59:48;27.60;45.70
80238;DHT22;69544;42.138;24.742;2023-06-14T14:02:14;27.60;45.70
80238;DHT22;69544;42.138;24.742;2023-06-14T14:04:40;27.60;45.70
80238;DHT22;69544;42.138;24.742;2023-06-14T14:07:07;27.60;45.80
80238;DHT22;69544;42.138;24.742;2023-06-14T14:09:33;27.60;45.80
80238;DHT22;69544;42.138;24.742;2023-06-14T14:12:00;27.60;45.90
80238;DHT22;69544;42.138;24.742;2023-06-14T14:14:27;27.60;45.90
80238;DHT22;69544;42.138;24.742;2023-06-14T14:16:53;27.60;45.90
80238;DHT22;69544;42.138;24.742;2023-06-14T14:19:20;27.60;45.80
80238;DHT22;69544;42.138;24.742;2023-06-14T14:21:47;27.60;45.80
80238;DHT22;69544;42.138;24.742;2023-06-14T14:24:13;27.60;45.80
80238;DHT22;69544;42.138;24.742;2023-06-14T14:26:39;27.60;45.70
80238;DHT22;69544;42.138;24.742;2023-06-14T14:29:05;27.60;45.60
80238;DHT22;69544;42.138;24.742;2023-06-14T14:31:31;27.60;45.60
80238;DHT22;69544;42.138;24.742;2023-06-14T14:33:57;27.60;45.80
80238;DHT22;69544;42.138;24.742;2023-06-14T14:36:23;27.60;45.80
80238;DHT22;69544;42.138;24.742;2023-06-14T14:38:49;27.60;45.70
80238;DHT22;69544;42.138;24.742;2023-06-14T14:41:17;27.60;45.80
80238;DHT22;69544;42.138;24.742;2023-06-14T14:43:43;27.60;45.80
80238;DHT22;69544;42.138;24.742;2023-06-14T14:46:09;27.60;45.70
80238;DHT22;69544;42.138;24.742;2023-06-14T14:48:35;27.60;45.60
80238;DHT22;69544;42.138;24.742;2023-06-14T14:51:00;27.60;45.70
80238;DHT22;69544;42.138;24.742;2023-06-14T14:53:26;27.60;45.90
80238;DHT22;69544;42.138;24.742;2023-06-14T14:55:52;27.60;45.80
80238;DHT22;69544;42.138;24.742;2023-06-14T14:58:17;27.60;45.90
80238;DHT22;69544;42.138;24.742;2023-06-14T15:00:47;27.60;45.70
80238;DHT22;69544;42.138;24.742;2023-06-14T15:03:14;27.60;45.70
80238;DHT22;69544;42.138;24.742;2023-06-14T15:05:40;27.60;45.60
80238;DHT22;69544;42.138;24.742;2023-06-14T15:08:08;27.60;45.80
80238;DHT22;69544;42.138;24.742;2023-06-14T15:10:38;27.50;45.50
80238;DHT22;69544;42.138;24.742;2023-06-14T15:13:10;27.50;45.50
80238;DHT22;69544;42.138;24.742;2023-06-14T15:15:36;27.50;45.60
80238;DHT22;69544;42.138;24.742;2023-06-14T15:18:02;27.50;46.70
80238;DHT22;69544;42.138;24.742;2023-06-14T15:20:28;27.50;45.70
80238;DHT22;69544;42.138;24.742;2023-06-14T15:22:54;27.50;45.70
80238;DHT22;69544;42.138;24.742;2023-06-14T15:25:28;27.50;45.70
80238;DHT22;69544;42.138;24.742;2023-06-14T15:27:54;27.40;45.60